sensor_id;sensor_type;location;lat;lon;timestamp;P1;durP1;ratioP1;P2;durP2;ratioP2
65717;SDS011;52445;52.466;-1.016;2022-09-29T00:01:04;2.60;;;1.20;;
65717;SDS011;52445;52.466;-1.016;2022-09-29T00:03:35;2.95;;;1.58;;
65717;SDS011;52445;52.466;-1.016;2022-09-29T00:06:02;2.55;;;1.20;;
65717;SDS011;52445;52.466;-1.016;2022-09-29T00:08:30;3.03;;;1.30;;
65717;SDS011;52445;52.466;-1.016;2022-09-29T00:10:56;3.22;;;1.35;;
65717;SDS011;52445;52.466;-1.016;2022-09-29T00:13:23;4.32;;;1.60;;
65717;SDS011;52445;52.466;-1.016;2022-09-29T00:15:58;2.65;;;1.27;;
65717;SDS011;52445;52.466;-1.016;2022-09-29T00:18:27;3.72;;;1.83;;
65717;SDS011;52445;52.466;-1.016;2022-09-29T00:23:34;3.45;;;1.98;;
65717;SDS011;52445;52.466;-1.016;2022-09-29T00:26:05;5.03;;;1.88;;
65717;SDS011;52445;52.466;-1.016;2022-09-29T00:28:35;3.63;;;1.40;;
65717;SDS011;52445;52.466;-1.016;2022-09-29T00:31:06;3.10;;;1.65;;
65717;SDS011;52445;52.466;-1.016;2022-09-29T00:33:37;3.22;;;1.85;;
65717;SDS011;52445;52.466;-1.016;2022-09-29T00:36:08;4.80;;;1.63;;
65717;SDS011;52445;52.466;-1.016;2022-09-29T00:38:39;3.20;;;1.48;;
65717;SDS011;52445;52.466;-1.016;2022-09-29T00:41:18;4.85;;;2.05;;
65717;SDS011;52445;52.466;-1.016;2022-09-29T00:43:52;3.20;;;1.63;;
65717;SDS011;52445;52.466;-1.016;2022-09-29T00:52:10;8.52;;;2.33;;
65717;SDS011;52445;52.466;-1.016;2022-09-29T00:54:44;4.07;;;1.80;;
65717;SDS011;52445;52.466;-1.016;2022-09-29T00:57:16;3.95;;;1.85;;
65717;SDS011;52445;52.466;-1.016;2022-09-29T00:59:48;3.70;;;1.63;;
65717;SDS011;52445;52.466;-1.016;2022-09-29T01:02:20;3.22;;;1.42;;
65717;SDS011;52445;52.466;-1.016;2022-09-29T01:04:49;3.67;;;1.73;;
65717;SDS011;52445;52.466;-1.016;2022-09-29T01:07:19;4.82;;;2.05;;
65717;SDS011;52445;52.466;-1.016;2022-09-29T01:09:49;4.70;;;1.23;;
65717;SDS011;52445;52.466;-1.016;2022-09-29T01:12:19;3.40;;;1.65;;
65717;SDS011;52445;52.466;-1.016;2022-09-29T01:14:46;3.85;;;1.50;;
65717;SDS011;52445;52.466;-1.016;2022-09-29T01:17:13;2.42;;;1.20;;
65717;SDS011;52445;52.466;-1.016;2022-09-29T01:19:46;4.93;;;1.52;;
65717;SDS011;52445;52.466;-1.016;2022-09-29T01:33:23;3.97;;;1.95;;
65717;SDS011;52445;52.466;-1.016;2022-09-29T01:36:09;3.05;;;1.50;;
65717;SDS011;52445;52.466;-1.016;2022-09-29T01:39:01;5.43;;;1.88;;
65717;SDS011;52445;52.466;-1.016;2022-09-29T01:41:39;2.65;;;1.33;;
65717;SDS011;52445;52.466;-1.016;2022-09-29T01:44:20;3.20;;;1.40;;
65717;SDS011;52445;52.466;-1.016;2022-09-29T01:47:00;3.40;;;2.65;;
65717;SDS011;52445;52.466;-1.016;2022-09-29T01:49:36;4.13;;;2.80;;
65717;SDS011;52445;52.466;-1.016;2022-09-29T01:52:07;2.67;;;1.27;;
65717;SDS011;52445;52.466;-1.016;2022-09-29T01:54:41;4.05;;;2.38;;
65717;SDS011;52445;52.466;-1.016;2022-09-29T01:57:24;1.80;;;1.10;;
65717;SDS011;52445;52.466;-1.016;2022-09-29T02:00:00;3.53;;;1.50;;
65717;SDS011;52445;52.466;-1.016;2022-09-29T02:05:19;3.00;;;2.65;;
65717;SDS011;52445;52.466;-1.016;2022-09-29T02:07:52;4.20;;;2.67;;
65717;SDS011;52445;52.466;-1.016;2022-09-29T02:10:23;3.67;;;2.58;;
65717;SDS011;52445;52.466;-1.016;2022-09-29T02:12:54;3.13;;;2.38;;
65717;SDS011;52445;52.466;-1.016;2022-09-29T02:15:26;4.18;;;2.33;;
65717;SDS011;52445;52.466;-1.016;2022-09-29T02:17:58;3.17;;;2.85;;
65717;SDS011;52445;52.466;-1.016;2022-09-29T02:20:31;2.75;;;2.28;;
65717;SDS011;52445;52.466;-1.016;2022-09-29T02:22:58;4.45;;;2.30;;
65717;SDS011;52445;52.466;-1.016;2022-09-29T02:25:24;2.75;;;2.53;;
65717;SDS011;52445;52.466;-1.016;2022-09-29T02:27:51;3.78;;;2.80;;
65717;SDS011;52445;52.466;-1.016;2022-09-29T02:30:18;7.20;;;3.03;;
65717;SDS011;52445;52.466;-1.016;2022-09-29T02:32:46;4.95;;;2.25;;
65717;SDS011;52445;52.466;-1.016;2022-09-29T02:35:13;3.25;;;2.55;;
65717;SDS011;52445;52.466;-1.016;2022-09-29T02:40:40;2.65;;;1.20;;
65717;SDS011;52445;52.466;-1.016;2022-09-29T02:43:22;5.07;;;1.38;;
65717;SDS011;52445;52.466;-1.016;2022-09-29T02:52:01;3.13;;;2.10;;
65717;SDS011;52445;52.466;-1.016;2022-09-29T02:54:59;3.17;;;1.55;;
65717;SDS011;52445;52.466;-1.016;2022-09-29T02:57:45;3.88;;;1.58;;
65717;SDS011;52445;52.466;-1.016;2022-09-29T03:00:17;3.08;;;1.38;;
65717;SDS011;52445;52.466;-1.016;2022-09-29T03:02:45;2.88;;;1.50;;
65717;SDS011;52445;52.466;-1.016;2022-09-29T03:05:13;3.65;;;1.60;;
65717;SDS011;52445;52.466;-1.016;2022-09-29T03:07:42;2.40;;;1.27;;
65717;SDS011;52445;52.466;-1.016;2022-09-29T03:10:09;3.45;;;1.25;;
65717;SDS011;52445;52.466;-1.016;2022-09-29T03:12:38;3.35;;;1.35;;
65717;SDS011;52445;52.466;-1.016;2022-09-29T03:15:05;3.38;;;1.67;;
65717;SDS011;52445;52.466;-1.016;2022-09-29T03:17:32;4.13;;;1.63;;
65717;SDS011;52445;52.466;-1.016;2022-09-29T03:19:59;6.97;;;1.70;;
65717;SDS011;52445;52.466;-1.016;2022-09-29T03:22:26;3.90;;;1.70;;
65717;SDS011;52445;52.466;-1.016;2022-09-29T03:24:53;2.75;;;1.75;;
65717;SDS011;52445;52.466;-1.016;2022-09-29T03:27:19;4.72;;;1.85;;
65717;SDS011;52445;52.466;-1.016;2022-09-29T03:29:46;3.88;;;1.52;;
65717;SDS011;52445;52.466;-1.016;2022-09-29T03:32:13;3.17;;;1.63;;
65717;SDS011;52445;52.466;-1.016;2022-09-29T03:34:39;3.42;;;1.92;;
65717;SDS011;52445;52.466;-1.016;2022-09-29T03:37:06;3.05;;;1.77;;
65717;SDS011;52445;52.466;-1.016;2022-09-29T03:39:32;3.90;;;1.80;;
65717;SDS011;52445;52.466;-1.016;2022-09-29T03:41:59;3.78;;;1.80;;
65717;SDS011;52445;52.466;-1.016;2022-09-29T03:44:26;4.35;;;1.65;;
65717;SDS011;52445;52.466;-1.016;2022-09-29T03:46:52;4.25;;;1.98;;
65717;SDS011;52445;52.466;-1.016;2022-09-29T03:49:19;3.75;;;1.95;;
65717;SDS011;52445;52.466;-1.016;2022-09-29T03:51:45;4.10;;;1.92;;
65717;SDS011;52445;52.466;-1.016;2022-09-29T03:54:12;3.95;;;2.22;;
65717;SDS011;52445;52.466;-1.016;2022-09-29T03:56:39;4.55;;;1.63;;
65717;SDS011;52445;52.466;-1.016;2022-09-29T03:59:05;4.60;;;1.80;;
65717;SDS011;52445;52.466;-1.016;2022-09-29T04:01:34;4.43;;;2.75;;
65717;SDS011;52445;52.466;-1.016;2022-09-29T04:04:03;3.78;;;1.52;;
65717;SDS011;52445;52.466;-1.016;2022-09-29T04:06:32;3.90;;;2.10;;
65717;SDS011;52445;52.466;-1.016;2022-09-29T04:08:59;4.10;;;1.98;;
65717;SDS011;52445;52.466;-1.016;2022-09-29T04:11:25;8.65;;;2.40;;
65717;SDS011;52445;52.466;-1.016;2022-09-29T04:13:53;3.55;;;1.92;;
65717;SDS011;52445;52.466;-1.016;2022-09-29T04:16:19;5.97;;;1.95;;
65717;SDS011;52445;52.466;-1.016;2022-09-29T04:18:46;4.57;;;1.83;;
65717;SDS011;52445;52.466;-1.016;2022-09-29T04:21:13;5.50;;;2.10;;
65717;SDS011;52445;52.466;-1.016;2022-09-29T04:23:39;3.67;;;1.83;;
65717;SDS011;52445;52.466;-1.016;2022-09-29T04:26:06;4.07;;;2.08;;
65717;SDS011;52445;52.466;-1.016;2022-09-29T04:28:34;4.75;;;2.67;;
65717;SDS011;52445;52.466;-1.016;2022-09-29T04:31:01;4.05;;;2.03;;
65717;SDS011;52445;52.466;-1.016;2022-09-29T04:33:28;4.38;;;3.42;;
65717;SDS011;52445;52.466;-1.016;2022-09-29T04:35:55;4.68;;;2.53;;
65717;SDS011;52445;52.466;-1.016;2022-09-29T04:38:23;3.75;;;2.00;;
65717;SDS011;52445;52.466;-1.016;2022-09-29T04:40:50;4.35;;;2.15;;
65717;SDS011;52445;52.466;-1.016;2022-09-29T04:43:16;4.32;;;2.40;;
65717;SDS011;52445;52.466;-1.016;2022-09-29T04:45:43;3.90;;;2.15;;
65717;SDS011;52445;52.466;-1.016;2022-09-29T04:48:10;4.43;;;2.20;;
65717;SDS011;52445;52.466;-1.016;2022-09-29T04:50:36;5.05;;;2.30;;
65717;SDS011;52445;52.466;-1.016;2022-09-29T04:53:03;4.50;;;1.95;;
65717;SDS011;52445;52.466;-1.016;2022-09-29T04:55:30;5.45;;;2.55;;
65717;SDS011;52445;52.466;-1.016;2022-09-29T04:57:56;4.07;;;2.38;;
65717;SDS011;52445;52.466;-1.016;2022-09-29T05:00:23;3.47;;;2.08;;
65717;SDS011;52445;52.466;-1.016;2022-09-29T05:02:49;5.60;;;2.35;;
65717;SDS011;52445;52.466;-1.016;2022-09-29T05:05:16;5.28;;;2.42;;
65717;SDS011;52445;52.466;-1.016;2022-09-29T05:07:43;4.47;;;2.30;;
65717;SDS011;52445;52.466;-1.016;2022-09-29T05:10:10;5.03;;;2.25;;
65717;SDS011;52445;52.466;-1.016;2022-09-29T05:12:37;4.50;;;2.55;;
65717;SDS011;52445;52.466;-1.016;2022-09-29T05:15:04;3.75;;;1.92;;
65717;SDS011;52445;52.466;-1.016;2022-09-29T05:17:32;4.90;;;2.45;;
65717;SDS011;52445;52.466;-1.016;2022-09-29T05:19:58;4.75;;;2.85;;
65717;SDS011;52445;52.466;-1.016;2022-09-29T05:22:28;3.85;;;1.95;;
65717;SDS011;52445;52.466;-1.016;2022-09-29T05:24:54;6.95;;;2.75;;
65717;SDS011;52445;52.466;-1.016;2022-09-29T05:27:21;5.25;;;2.15;;
65717;SDS011;52445;52.466;-1.016;2022-09-29T05:29:47;4.97;;;2.83;;
65717;SDS011;52445;52.466;-1.016;2022-09-29T05:32:14;6.57;;;2.63;;
65717;SDS011;52445;52.466;-1.016;2022-09-29T05:34:41;4.25;;;2.33;;
65717;SDS011;52445;52.466;-1.016;2022-09-29T05:37:08;6.43;;;2.70;;
65717;SDS011;52445;52.466;-1.016;2022-09-29T05:39:35;5.88;;;2.50;;
65717;SDS011;52445;52.466;-1.016;2022-09-29T05:42:03;4.70;;;2.33;;
65717;SDS011;52445;52.466;-1.016;2022-09-29T05:44:31;5.70;;;3.03;;
65717;SDS011;52445;52.466;-1.016;2022-09-29T05:46:59;9.07;;;3.20;;
65717;SDS011;52445;52.466;-1.016;2022-09-29T05:49:26;5.30;;;2.63;;
65717;SDS011;52445;52.466;-1.016;2022-09-29T05:51:53;5.80;;;2.72;;
65717;SDS011;52445;52.466;-1.016;2022-09-29T05:54:19;4.80;;;2.70;;
65717;SDS011;52445;52.466;-1.016;2022-09-29T05:56:46;4.93;;;2.97;;
65717;SDS011;52445;52.466;-1.016;2022-09-29T05:59:13;8.55;;;3.15;;
65717;SDS011;52445;52.466;-1.016;2022-09-29T06:01:40;6.28;;;2.92;;
65717;SDS011;52445;52.466;-1.016;2022-09-29T06:04:06;7.20;;;3.38;;
65717;SDS011;52445;52.466;-1.016;2022-09-29T06:06:33;8.25;;;3.10;;
65717;SDS011;52445;52.466;-1.016;2022-09-29T06:09:01;5.68;;;3.08;;
65717;SDS011;52445;52.466;-1.016;2022-09-29T06:11:29;5.47;;;3.00;;
65717;SDS011;52445;52.466;-1.016;2022-09-29T06:13:57;5.43;;;2.55;;
65717;SDS011;52445;52.466;-1.016;2022-09-29T06:16:25;6.95;;;3.60;;
65717;SDS011;52445;52.466;-1.016;2022-09-29T06:18:53;8.00;;;3.20;;
65717;SDS011;52445;52.466;-1.016;2022-09-29T06:21:22;5.50;;;2.90;;
65717;SDS011;52445;52.466;-1.016;2022-09-29T06:23:50;7.07;;;3.33;;
65717;SDS011;52445;52.466;-1.016;2022-09-29T06:26:18;8.13;;;3.08;;
65717;SDS011;52445;52.466;-1.016;2022-09-29T06:28:49;9.38;;;3.35;;
65717;SDS011;52445;52.466;-1.016;2022-09-29T06:31:17;6.05;;;2.97;;
65717;SDS011;52445;52.466;-1.016;2022-09-29T06:33:45;7.60;;;3.35;;
65717;SDS011;52445;52.466;-1.016;2022-09-29T06:36:20;8.80;;;3.15;;
65717;SDS011;52445;52.466;-1.016;2022-09-29T06:39:10;6.55;;;3.03;;
65717;SDS011;52445;52.466;-1.016;2022-09-29T06:41:39;9.25;;;3.50;;
65717;SDS011;52445;52.466;-1.016;2022-09-29T06:44:06;8.70;;;3.70;;
65717;SDS011;52445;52.466;-1.016;2022-09-29T06:46:33;6.45;;;3.25;;
65717;SDS011;52445;52.466;-1.016;2022-09-29T06:49:00;8.00;;;4.03;;
65717;SDS011;52445;52.466;-1.016;2022-09-29T06:51:27;9.65;;;3.58;;
65717;SDS011;52445;52.466;-1.016;2022-09-29T06:54:06;7.70;;;3.95;;
65717;SDS011;52445;52.466;-1.016;2022-09-29T06:56:37;14.65;;;5.10;;
65717;SDS011;52445;52.466;-1.016;2022-09-29T06:59:05;14.52;;;5.40;;
65717;SDS011;52445;52.466;-1.016;2022-09-29T07:01:32;15.27;;;5.43;;
65717;SDS011;52445;52.466;-1.016;2022-09-29T07:03:59;12.52;;;5.13;;
65717;SDS011;52445;52.466;-1.016;2022-09-29T07:06:27;15.00;;;5.35;;
65717;SDS011;52445;52.466;-1.016;2022-09-29T07:08:54;13.30;;;5.35;;
65717;SDS011;52445;52.466;-1.016;2022-09-29T07:11:22;18.08;;;5.13;;
65717;SDS011;52445;52.466;-1.016;2022-09-29T07:13:49;12.95;;;5.22;;
65717;SDS011;52445;52.466;-1.016;2022-09-29T07:16:19;11.57;;;4.93;;
65717;SDS011;52445;52.466;-1.016;2022-09-29T07:18:49;12.38;;;4.82;;
65717;SDS011;52445;52.466;-1.016;2022-09-29T07:21:16;11.13;;;4.40;;
65717;SDS011;52445;52.466;-1.016;2022-09-29T07:23:44;19.33;;;5.97;;
65717;SDS011;52445;52.466;-1.016;2022-09-29T07:26:12;13.00;;;5.50;;
65717;SDS011;52445;52.466;-1.016;2022-09-29T07:28:42;12.70;;;4.65;;
65717;SDS011;52445;52.466;-1.016;2022-09-29T07:31:10;13.35;;;5.40;;
65717;SDS011;52445;52.466;-1.016;2022-09-29T07:33:41;11.85;;;4.22;;
65717;SDS011;52445;52.466;-1.016;2022-09-29T07:36:10;11.00;;;4.75;;
65717;SDS011;52445;52.466;-1.016;2022-09-29T07:38:38;12.77;;;4.88;;
65717;SDS011;52445;52.466;-1.016;2022-09-29T07:41:06;12.13;;;3.95;;
65717;SDS011;52445;52.466;-1.016;2022-09-29T07:43:34;9.82;;;4.53;;
65717;SDS011;52445;52.466;-1.016;2022-09-29T07:46:01;12.65;;;4.88;;
65717;SDS011;52445;52.466;-1.016;2022-09-29T07:48:28;8.88;;;3.72;;
65717;SDS011;52445;52.466;-1.016;2022-09-29T07:50:59;11.80;;;4.10;;
65717;SDS011;52445;52.466;-1.016;2022-09-29T07:53:28;10.35;;;3.85;;
65717;SDS011;52445;52.466;-1.016;2022-09-29T07:56:00;11.57;;;5.10;;
65717;SDS011;52445;52.466;-1.016;2022-09-29T07:58:28;11.43;;;4.60;;
65717;SDS011;52445;52.466;-1.016;2022-09-29T08:00:57;14.68;;;4.18;;
65717;SDS011;52445;52.466;-1.016;2022-09-29T08:03:25;12.82;;;5.00;;
65717;SDS011;52445;52.466;-1.016;2022-09-29T08:05:52;14.13;;;5.32;;
65717;SDS011;52445;52.466;-1.016;2022-09-29T08:08:19;10.80;;;4.88;;
65717;SDS011;52445;52.466;-1.016;2022-09-29T08:10:45;12.18;;;5.15;;
65717;SDS011;52445;52.466;-1.016;2022-09-29T08:13:18;14.90;;;5.03;;
65717;SDS011;52445;52.466;-1.016;2022-09-29T08:15:45;11.25;;;4.88;;
65717;SDS011;52445;52.466;-1.016;2022-09-29T08:18:12;11.32;;;4.53;;
65717;SDS011;52445;52.466;-1.016;2022-09-29T08:20:38;11.88;;;4.28;;
65717;SDS011;52445;52.466;-1.016;2022-09-29T08:23:05;10.25;;;3.95;;
65717;SDS011;52445;52.466;-1.016;2022-09-29T08:25:32;13.23;;;4.82;;
65717;SDS011;52445;52.466;-1.016;2022-09-29T08:28:00;13.60;;;5.25;;
65717;SDS011;52445;52.466;-1.016;2022-09-29T08:30:27;11.65;;;4.50;;
65717;SDS011;52445;52.466;-1.016;2022-09-29T08:32:54;18.17;;;4.88;;
65717;SDS011;52445;52.466;-1.016;2022-09-29T08:35:21;14.55;;;4.38;;
65717;SDS011;52445;52.466;-1.016;2022-09-29T08:37:47;15.52;;;5.65;;
65717;SDS011;52445;52.466;-1.016;2022-09-29T08:40:14;11.60;;;4.70;;
65717;SDS011;52445;52.466;-1.016;2022-09-29T08:42:53;12.13;;;4.95;;
65717;SDS011;52445;52.466;-1.016;2022-09-29T08:45:32;14.25;;;4.82;;
65717;SDS011;52445;52.466;-1.016;2022-09-29T08:48:12;15.07;;;5.45;;
65717;SDS011;52445;52.466;-1.016;2022-09-29T08:51:05;13.32;;;5.32;;
65717;SDS011;52445;52.466;-1.016;2022-09-29T08:53:38;14.35;;;6.07;;
65717;SDS011;52445;52.466;-1.016;2022-09-29T08:56:25;11.50;;;3.80;;
65717;SDS011;52445;52.466;-1.016;2022-09-29T08:58:52;12.00;;;6.00;;
65717;SDS011;52445;52.466;-1.016;2022-09-29T09:10:13;10.63;;;3.80;;
65717;SDS011;52445;52.466;-1.016;2022-09-29T09:12:55;11.63;;;4.65;;
65717;SDS011;52445;52.466;-1.016;2022-09-29T09:21:16;13.98;;;4.70;;
65717;SDS011;52445;52.466;-1.016;2022-09-29T09:26:51;15.00;;;4.93;;
65717;SDS011;52445;52.466;-1.016;2022-09-29T09:29:21;14.13;;;4.78;;
65717;SDS011;52445;52.466;-1.016;2022-09-29T09:34:42;11.63;;;4.15;;
65717;SDS011;52445;52.466;-1.016;2022-09-29T09:37:17;11.63;;;3.72;;
65717;SDS011;52445;52.466;-1.016;2022-09-29T09:39:55;10.93;;;3.75;;
65717;SDS011;52445;52.466;-1.016;2022-09-29T09:42:40;9.80;;;4.10;;
65717;SDS011;52445;52.466;-1.016;2022-09-29T09:45:13;9.55;;;3.80;;
65717;SDS011;52445;52.466;-1.016;2022-09-29T09:47:49;9.30;;;3.72;;
65717;SDS011;52445;52.466;-1.016;2022-09-29T09:50:24;11.25;;;4.38;;
65717;SDS011;52445;52.466;-1.016;2022-09-29T09:55:28;10.40;;;4.43;;
65717;SDS011;52445;52.466;-1.016;2022-09-29T10:01:01;12.38;;;5.95;;
65717;SDS011;52445;52.466;-1.016;2022-09-29T10:03:32;9.93;;;5.90;;
65717;SDS011;52445;52.466;-1.016;2022-09-29T10:06:00;8.98;;;3.95;;
65717;SDS011;52445;52.466;-1.016;2022-09-29T10:08:27;10.05;;;4.88;;
65717;SDS011;52445;52.466;-1.016;2022-09-29T10:10:57;8.93;;;4.53;;
65717;SDS011;52445;52.466;-1.016;2022-09-29T10:13:27;9.50;;;4.88;;
65717;SDS011;52445;52.466;-1.016;2022-09-29T10:23:56;10.05;;;3.53;;
65717;SDS011;52445;52.466;-1.016;2022-09-29T10:26:27;6.78;;;3.78;;
65717;SDS011;52445;52.466;-1.016;2022-09-29T10:32:09;6.35;;;3.88;;
65717;SDS011;52445;52.466;-1.016;2022-09-29T10:34:40;5.28;;;2.38;;
65717;SDS011;52445;52.466;-1.016;2022-09-29T10:40:08;4.70;;;3.38;;
65717;SDS011;52445;52.466;-1.016;2022-09-29T10:42:41;5.93;;;3.85;;
65717;SDS011;52445;52.466;-1.016;2022-09-29T10:45:27;4.07;;;2.97;;
65717;SDS011;52445;52.466;-1.016;2022-09-29T10:50:34;7.50;;;1.48;;
65717;SDS011;52445;52.466;-1.016;2022-09-29T10:53:05;2.58;;;1.20;;
65717;SDS011;52445;52.466;-1.016;2022-09-29T10:55:49;4.15;;;1.00;;
65717;SDS011;52445;52.466;-1.016;2022-09-29T11:03:47;3.65;;;1.50;;
65717;SDS011;52445;52.466;-1.016;2022-09-29T11:06:23;4.25;;;1.13;;
65717;SDS011;52445;52.466;-1.016;2022-09-29T11:08:55;2.97;;;1.23;;
65717;SDS011;52445;52.466;-1.016;2022-09-29T11:11:33;2.15;;;1.67;;
65717;SDS011;52445;52.466;-1.016;2022-09-29T11:14:02;2.20;;;0.90;;
65717;SDS011;52445;52.466;-1.016;2022-09-29T11:16:32;1.20;;;0.75;;
65717;SDS011;52445;52.466;-1.016;2022-09-29T11:19:09;1.98;;;1.25;;
65717;SDS011;52445;52.466;-1.016;2022-09-29T11:24:19;2.45;;;2.13;;
65717;SDS011;52445;52.466;-1.016;2022-09-29T11:27:06;2.53;;;2.20;;
65717;SDS011;52445;52.466;-1.016;2022-09-29T11:29:49;2.78;;;1.50;;
65717;SDS011;52445;52.466;-1.016;2022-09-29T11:45:47;2.83;;;1.65;;
65717;SDS011;52445;52.466;-1.016;2022-09-29T12:02:15;2.55;;;1.50;;
65717;SDS011;52445;52.466;-1.016;2022-09-29T12:05:01;3.78;;;3.28;;
65717;SDS011;52445;52.466;-1.016;2022-09-29T12:18:36;4.35;;;1.88;;
65717;SDS011;52445;52.466;-1.016;2022-09-29T12:21:09;4.75;;;1.58;;
65717;SDS011;52445;52.466;-1.016;2022-09-29T12:23:43;2.30;;;1.23;;
65717;SDS011;52445;52.466;-1.016;2022-09-29T12:26:16;2.83;;;1.45;;
65717;SDS011;52445;52.466;-1.016;2022-09-29T12:31:42;3.78;;;2.83;;
65717;SDS011;52445;52.466;-1.016;2022-09-29T12:34:16;2.35;;;1.80;;
65717;SDS011;52445;52.466;-1.016;2022-09-29T12:37:02;3.42;;;3.03;;
65717;SDS011;52445;52.466;-1.016;2022-09-29T12:48:00;3.83;;;2.88;;
65717;SDS011;52445;52.466;-1.016;2022-09-29T12:50:47;3.42;;;2.88;;
65717;SDS011;52445;52.466;-1.016;2022-09-29T12:53:23;3.13;;;2.67;;
65717;SDS011;52445;52.466;-1.016;2022-09-29T12:58:34;2.08;;;1.15;;
65717;SDS011;52445;52.466;-1.016;2022-09-29T13:01:30;1.63;;;1.25;;
65717;SDS011;52445;52.466;-1.016;2022-09-29T13:28:32;1.77;;;0.88;;
65717;SDS011;52445;52.466;-1.016;2022-09-29T13:31:04;2.58;;;2.38;;
65717;SDS011;52445;52.466;-1.016;2022-09-29T13:33:34;2.35;;;2.13;;
65717;SDS011;52445;52.466;-1.016;2022-09-29T13:36:01;2.58;;;2.33;;
65717;SDS011;52445;52.466;-1.016;2022-09-29T13:38:29;2.53;;;2.33;;
65717;SDS011;52445;52.466;-1.016;2022-09-29T13:41:31;2.67;;;2.47;;
65717;SDS011;52445;52.466;-1.016;2022-09-29T13:46:37;2.30;;;1.25;;
65717;SDS011;52445;52.466;-1.016;2022-09-29T13:57:03;2.22;;;1.27;;
65717;SDS011;52445;52.466;-1.016;2022-09-29T13:59:43;2.95;;;0.82;;
65717;SDS011;52445;52.466;-1.016;2022-09-29T14:02:17;2.28;;;0.90;;
65717;SDS011;52445;52.466;-1.016;2022-09-29T14:04:54;1.88;;;0.75;;
65717;SDS011;52445;52.466;-1.016;2022-09-29T14:07:38;1.73;;;1.13;;
65717;SDS011;52445;52.466;-1.016;2022-09-29T14:15:38;2.72;;;2.42;;
65717;SDS011;52445;52.466;-1.016;2022-09-29T14:18:15;2.35;;;2.15;;
65717;SDS011;52445;52.466;-1.016;2022-09-29T14:23:51;4.60;;;1.95;;
65717;SDS011;52445;52.466;-1.016;2022-09-29T14:29:12;3.22;;;1.20;;
65717;SDS011;52445;52.466;-1.016;2022-09-29T14:31:47;1.67;;;1.00;;
65717;SDS011;52445;52.466;-1.016;2022-09-29T14:34:19;3.00;;;0.80;;
65717;SDS011;52445;52.466;-1.016;2022-09-29T14:36:48;1.02;;;0.80;;
65717;SDS011;52445;52.466;-1.016;2022-09-29T14:39:18;1.50;;;1.20;;
65717;SDS011;52445;52.466;-1.016;2022-09-29T14:42:00;1.60;;;0.90;;
65717;SDS011;52445;52.466;-1.016;2022-09-29T14:50:07;1.27;;;1.08;;
65717;SDS011;52445;52.466;-1.016;2022-09-29T15:01:25;2.33;;;2.13;;
65717;SDS011;52445;52.466;-1.016;2022-09-29T15:03:57;2.40;;;2.15;;
65717;SDS011;52445;52.466;-1.016;2022-09-29T15:06:32;1.85;;;1.75;;
65717;SDS011;52445;52.466;-1.016;2022-09-29T15:08:59;1.70;;;1.02;;
65717;SDS011;52445;52.466;-1.016;2022-09-29T15:11:30;1.60;;;1.50;;
65717;SDS011;52445;52.466;-1.016;2022-09-29T15:25:21;2.17;;;1.27;;
65717;SDS011;52445;52.466;-1.016;2022-09-29T15:31:08;2.45;;;0.82;;
65717;SDS011;52445;52.466;-1.016;2022-09-29T15:33:38;1.00;;;0.65;;
65717;SDS011;52445;52.466;-1.016;2022-09-29T15:36:15;1.77;;;1.08;;
65717;SDS011;52445;52.466;-1.016;2022-09-29T15:38:53;2.33;;;2.03;;
65717;SDS011;52445;52.466;-1.016;2022-09-29T15:41:25;2.47;;;2.28;;
65717;SDS011;52445;52.466;-1.016;2022-09-29T15:43:57;2.08;;;1.77;;
65717;SDS011;52445;52.466;-1.016;2022-09-29T15:46:35;1.95;;;0.63;;
65717;SDS011;52445;52.466;-1.016;2022-09-29T15:51:43;1.33;;;1.20;;
65717;SDS011;52445;52.466;-1.016;2022-09-29T15:54:21;2.20;;;1.90;;
65717;SDS011;52445;52.466;-1.016;2022-09-29T15:56:48;2.97;;;2.78;;
65717;SDS011;52445;52.466;-1.016;2022-09-29T15:59:39;1.80;;;1.70;;
65717;SDS011;52445;52.466;-1.016;2022-09-29T16:02:14;3.60;;;2.15;;
65717;SDS011;52445;52.466;-1.016;2022-09-29T16:04:45;2.20;;;1.52;;
65717;SDS011;52445;52.466;-1.016;2022-09-29T16:07:16;2.05;;;1.85;;
65717;SDS011;52445;52.466;-1.016;2022-09-29T16:09:47;2.67;;;2.20;;
65717;SDS011;52445;52.466;-1.016;2022-09-29T16:12:15;36.10;;;19.83;;
65717;SDS011;52445;52.466;-1.016;2022-09-29T16:14:45;4.10;;;2.78;;
65717;SDS011;52445;52.466;-1.016;2022-09-29T16:17:15;2.63;;;2.42;;
65717;SDS011;52445;52.466;-1.016;2022-09-29T16:19:43;1.92;;;1.73;;
65717;SDS011;52445;52.466;-1.016;2022-09-29T16:22:16;1.75;;;1.60;;
65717;SDS011;52445;52.466;-1.016;2022-09-29T16:24:50;1.73;;;1.60;;
65717;SDS011;52445;52.466;-1.016;2022-09-29T16:30:24;1.85;;;1.70;;
65717;SDS011;52445;52.466;-1.016;2022-09-29T16:33:04;2.70;;;0.60;;
65717;SDS011;52445;52.466;-1.016;2022-09-29T16:40:52;0.95;;;0.85;;
65717;SDS011;52445;52.466;-1.016;2022-09-29T16:43:23;2.22;;;0.82;;
65717;SDS011;52445;52.466;-1.016;2022-09-29T16:45:53;2.35;;;1.05;;
65717;SDS011;52445;52.466;-1.016;2022-09-29T16:48:23;1.13;;;0.95;;
65717;SDS011;52445;52.466;-1.016;2022-09-29T16:53:24;2.38;;;0.90;;
65717;SDS011;52445;52.466;-1.016;2022-09-29T16:55:55;1.60;;;0.98;;
65717;SDS011;52445;52.466;-1.016;2022-09-29T16:58:23;1.83;;;1.10;;
65717;SDS011;52445;52.466;-1.016;2022-09-29T17:00:52;2.03;;;1.70;;
65717;SDS011;52445;52.466;-1.016;2022-09-29T17:03:18;4.22;;;1.60;;
65717;SDS011;52445;52.466;-1.016;2022-09-29T17:05:45;2.55;;;1.92;;
65717;SDS011;52445;52.466;-1.016;2022-09-29T17:08:15;2.03;;;1.27;;
65717;SDS011;52445;52.466;-1.016;2022-09-29T17:10:48;3.40;;;0.98;;
65717;SDS011;52445;52.466;-1.016;2022-09-29T17:13:19;3.75;;;1.27;;
65717;SDS011;52445;52.466;-1.016;2022-09-29T17:15:47;3.80;;;0.90;;
65717;SDS011;52445;52.466;-1.016;2022-09-29T17:18:17;3.00;;;1.10;;
65717;SDS011;52445;52.466;-1.016;2022-09-29T17:20:45;1.63;;;1.42;;
65717;SDS011;52445;52.466;-1.016;2022-09-29T17:23:12;2.28;;;1.27;;
65717;SDS011;52445;52.466;-1.016;2022-09-29T17:25:39;4.82;;;1.33;;
65717;SDS011;52445;52.466;-1.016;2022-09-29T17:28:12;2.67;;;1.15;;
65717;SDS011;52445;52.466;-1.016;2022-09-29T17:30:43;3.17;;;1.45;;
65717;SDS011;52445;52.466;-1.016;2022-09-29T17:33:12;5.07;;;2.13;;
65717;SDS011;52445;52.466;-1.016;2022-09-29T17:35:42;4.00;;;1.63;;
65717;SDS011;52445;52.466;-1.016;2022-09-29T17:38:11;3.30;;;1.30;;
65717;SDS011;52445;52.466;-1.016;2022-09-29T17:43:18;2.78;;;2.47;;
65717;SDS011;52445;52.466;-1.016;2022-09-29T17:45:45;3.08;;;1.70;;
65717;SDS011;52445;52.466;-1.016;2022-09-29T17:48:12;2.90;;;2.65;;
65717;SDS011;52445;52.466;-1.016;2022-09-29T17:50:44;3.72;;;2.85;;
65717;SDS011;52445;52.466;-1.016;2022-09-29T17:53:12;3.13;;;2.63;;
65717;SDS011;52445;52.466;-1.016;2022-09-29T17:55:40;3.20;;;2.90;;
65717;SDS011;52445;52.466;-1.016;2022-09-29T17:58:09;3.47;;;3.05;;
65717;SDS011;52445;52.466;-1.016;2022-09-29T18:00:38;4.05;;;2.10;;
65717;SDS011;52445;52.466;-1.016;2022-09-29T18:03:05;4.47;;;2.90;;
65717;SDS011;52445;52.466;-1.016;2022-09-29T18:05:35;3.20;;;2.85;;
65717;SDS011;52445;52.466;-1.016;2022-09-29T18:08:04;3.97;;;2.85;;
65717;SDS011;52445;52.466;-1.016;2022-09-29T18:13:21;3.20;;;2.13;;
65717;SDS011;52445;52.466;-1.016;2022-09-29T18:15:48;3.78;;;2.55;;
65717;SDS011;52445;52.466;-1.016;2022-09-29T18:18:16;2.92;;;2.28;;
65717;SDS011;52445;52.466;-1.016;2022-09-29T18:20:45;3.30;;;2.38;;
65717;SDS011;52445;52.466;-1.016;2022-09-29T18:23:13;4.80;;;2.72;;
65717;SDS011;52445;52.466;-1.016;2022-09-29T18:25:41;3.25;;;2.20;;
65717;SDS011;52445;52.466;-1.016;2022-09-29T18:28:13;4.25;;;2.65;;
65717;SDS011;52445;52.466;-1.016;2022-09-29T18:30:41;3.17;;;2.25;;
65717;SDS011;52445;52.466;-1.016;2022-09-29T18:33:10;4.28;;;2.05;;
65717;SDS011;52445;52.466;-1.016;2022-09-29T18:35:40;4.95;;;2.22;;
65717;SDS011;52445;52.466;-1.016;2022-09-29T18:38:08;5.05;;;2.83;;
65717;SDS011;52445;52.466;-1.016;2022-09-29T18:40:35;3.28;;;2.97;;
65717;SDS011;52445;52.466;-1.016;2022-09-29T18:43:03;3.47;;;2.28;;